Time;durP1;ratioP1;P1;durP2;ratioP2;P2;SDS_P1;SDS_P2;PMS_P1;PMS_P2;Temp;Humidity;BMP_temperature;BMP_pressure;BME280_temperature;BME280_humidity;BME280_pressure;Samples;Min_cycle;Max_cycle;Signal;HPM_P1;HPM_P2
2022/07/02 00:01:00;;;;;;;5.97;1.95;;;;;;;;;;4955322;29;20175;-64
2022/07/02 00:03:36;;;;;;;12.25;2.42;;;;;;;;;;4955204;29;20237;-64
2022/07/02 00:06:03;;;;;;;9.13;2.30;;;;;;;;;;4952880;28;20175;-64
2022/07/02 00:08:29;;;;;;;13.27;2.63;;;;;;;;;;4954206;28;20178;-64
2022/07/02 00:10:56;;;;;;;10.48;2.38;;;;;;;;;;4955352;29;20222;-64
2022/07/02 00:13:23;;;;;;;11.40;2.50;;;;;;;;;;4937274;29;20226;-65
2022/07/02 00:15:50;;;;;;;15.07;2.50;;;;;;;;;;4954147;28;20245;-64
2022/07/02 00:18:16;;;;;;;13.13;2.67;;;;;;;;;;4937852;29;20218;-64
2022/07/02 00:20:43;;;;;;;8.00;2.50;;;;;;;;;;4937824;29;20186;-64
2022/07/02 00:23:10;;;;;;;8.95;2.45;;;;;;;;;;4937971;29;20274;-64
2022/07/02 00:25:43;;;;;;;9.43;2.72;;;;;;;;;;4946617;28;20190;-64
2022/07/02 00:28:15;;;;;;;11.45;2.50;;;;;;;;;;4954999;29;20647;-64
2022/07/02 00:30:44;;;;;;;8.70;2.53;;;;;;;;;;4954080;28;20191;-64
2022/07/02 00:33:12;;;;;;;10.15;2.67;;;;;;;;;;4954675;29;20279;-64
2022/07/02 00:35:39;;;;;;;12.88;3.00;;;;;;;;;;4953836;28;20267;-66
2022/07/02 00:38:05;;;;;;;12.85;2.58;;;;;;;;;;4953887;29;20245;-64
2022/07/02 00:40:32;;;;;;;10.70;2.67;;;;;;;;;;4954626;29;20262;-65
2022/07/02 00:42:58;;;;;;;10.30;3.05;;;;;;;;;;4954724;29;20205;-64
2022/07/02 00:45:25;;;;;;;10.00;2.63;;;;;;;;;;4953301;28;20194;-63
2022/07/02 00:47:51;;;;;;;7.93;2.47;;;;;;;;;;4954585;29;20634;-64
2022/07/02 00:50:18;;;;;;;9.07;3.15;;;;;;;;;;4954234;29;20265;-64
2022/07/02 00:52:44;;;;;;;13.20;2.83;;;;;;;;;;4957166;28;20274;-64
2022/07/02 00:55:10;;;;;;;12.65;2.78;;;;;;;;;;4957958;28;20206;-64
2022/07/02 00:57:36;;;;;;;9.80;2.40;;;;;;;;;;4958719;29;20210;-65
2022/07/02 01:00:02;;;;;;;9.82;2.70;;;;;;;;;;4958610;29;20285;-64
2022/07/02 01:02:31;;;;;;;9.77;2.50;;;;;;;;;;4941130;29;20294;-64
2022/07/02 01:04:58;;;;;;;12.77;2.80;;;;;;;;;;4957323;28;20269;-64
2022/07/02 01:07:24;;;;;;;11.07;2.67;;;;;;;;;;4955571;28;20646;-64
2022/07/02 01:12:35;;;;;;;10.93;2.90;;;;;;;;;;4958142;29;20218;-65
2022/07/02 01:15:02;;;;;;;11.55;2.95;;;;;;;;;;4924255;29;20511;-65
2022/07/02 01:17:28;;;;;;;8.27;2.50;;;;;;;;;;4937652;29;20183;-64
2022/07/02 01:19:54;;;;;;;12.77;2.80;;;;;;;;;;4958379;29;20178;-65
2022/07/02 01:22:32;;;;;;;10.43;2.80;;;;;;;;;;4958394;29;20696;-63
2022/07/02 01:24:58;;;;;;;9.57;2.80;;;;;;;;;;4925261;29;20186;-65
2022/07/02 01:27:24;;;;;;;9.30;2.53;;;;;;;;;;4938407;29;20199;-65
2022/07/02 01:29:51;;;;;;;7.72;2.38;;;;;;;;;;4924891;29;20285;-64
2022/07/02 01:32:17;;;;;;;11.32;2.38;;;;;;;;;;4957460;29;20218;-65
2022/07/02 01:34:46;;;;;;;10.50;2.08;;;;;;;;;;4956247;28;20187;-65
2022/07/02 01:37:13;;;;;;;9.00;2.53;;;;;;;;;;4940104;29;20175;-64
2022/07/02 01:39:40;;;;;;;11.30;2.63;;;;;;;;;;4957965;29;20645;-65
2022/07/02 01:42:07;;;;;;;6.43;2.60;;;;;;;;;;4957500;29;20186;-65
2022/07/02 01:44:34;;;;;;;9.50;2.70;;;;;;;;;;4956109;28;20199;-65
2022/07/02 01:47:01;;;;;;;7.63;2.20;;;;;;;;;;4957881;29;20175;-66
2022/07/02 01:49:27;;;;;;;7.32;2.47;;;;;;;;;;4957472;29;20186;-64
2022/07/02 01:51:53;;;;;;;8.52;2.38;;;;;;;;;;4957553;29;20190;-64
2022/07/02 01:54:20;;;;;;;9.25;2.60;;;;;;;;;;4938928;29;20321;-64
2022/07/02 01:56:46;;;;;;;10.05;2.60;;;;;;;;;;4957552;29;20174;-64
2022/07/02 01:59:13;;;;;;;9.82;2.55;;;;;;;;;;4940439;29;20191;-64
2022/07/02 02:01:40;;;;;;;7.82;2.30;;;;;;;;;;4940227;29;20262;-64
2022/07/02 02:04:06;;;;;;;6.85;2.25;;;;;;;;;;4956759;28;20238;-65
2022/07/02 02:06:32;;;;;;;5.53;2.20;;;;;;;;;;4956065;29;20584;-64
2022/07/02 02:08:59;;;;;;;9.95;2.30;;;;;;;;;;4957239;29;20202;-64
2022/07/02 02:11:25;;;;;;;5.60;2.00;;;;;;;;;;4939794;29;20774;-64
2022/07/02 02:13:51;;;;;;;5.53;2.13;;;;;;;;;;4956437;28;20216;-65
2022/07/02 02:16:18;;;;;;;5.30;2.10;;;;;;;;;;4957438;29;20183;-66
2022/07/02 02:18:44;;;;;;;11.45;2.60;;;;;;;;;;4957335;29;20233;-65
2022/07/02 02:21:10;;;;;;;11.15;2.70;;;;;;;;;;4939908;29;20245;-64
2022/07/02 02:23:37;;;;;;;10.00;2.60;;;;;;;;;;4954862;28;20195;-64
2022/07/02 02:26:03;;;;;;;4.68;2.03;;;;;;;;;;4954914;28;20209;-65
2022/07/02 02:28:29;;;;;;;14.38;2.33;;;;;;;;;;4956840;29;20179;-66
2022/07/02 02:30:55;;;;;;;5.35;2.08;;;;;;;;;;4939992;29;20182;-65
2022/07/02 02:33:21;;;;;;;9.82;2.50;;;;;;;;;;4937507;28;20215;-65
2022/07/02 02:35:47;;;;;;;4.65;2.30;;;;;;;;;;4922580;29;20190;-65
2022/07/02 02:38:14;;;;;;;6.65;2.60;;;;;;;;;;4955265;28;20194;-64
2022/07/02 02:40:40;;;;;;;9.63;2.25;;;;;;;;;;4956629;29;20194;-65
2022/07/02 02:43:06;;;;;;;6.78;2.53;;;;;;;;;;4939378;29;20195;-64
2022/07/02 02:45:33;;;;;;;7.00;2.00;;;;;;;;;;4954634;28;20205;-65
2022/07/02 02:47:59;;;;;;;5.25;2.30;;;;;;;;;;4939458;29;20593;-66
2022/07/02 02:50:25;;;;;;;4.50;2.00;;;;;;;;;;4939551;29;20206;-65
2022/07/02 02:52:51;;;;;;;5.38;2.03;;;;;;;;;;4955280;28;20298;-64
2022/07/02 02:55:18;;;;;;;7.93;2.20;;;;;;;;;;4939372;29;20183;-64
2022/07/02 02:57:44;;;;;;;8.98;2.30;;;;;;;;;;4956663;29;20186;-65
2022/07/02 03:00:10;;;;;;;4.25;1.95;;;;;;;;;;4923326;29;20528;-64
2022/07/02 03:02:36;;;;;;;7.03;2.33;;;;;;;;;;4956179;29;20214;-65
2022/07/02 03:05:03;;;;;;;5.47;2.33;;;;;;;;;;4955515;28;20203;-65
2022/07/02 03:07:29;;;;;;;8.43;2.20;;;;;;;;;;4954323;28;20337;-65
2022/07/02 03:09:56;;;;;;;3.83;2.03;;;;;;;;;;4956333;29;20767;-64
2022/07/02 03:12:22;;;;;;;3.55;2.22;;;;;;;;;;4938157;28;20690;-65
2022/07/02 03:14:48;;;;;;;8.88;2.70;;;;;;;;;;4955648;28;20198;-64
2022/07/02 03:17:14;;;;;;;6.00;2.00;;;;;;;;;;4956038;29;20187;-64
2022/07/02 03:19:40;;;;;;;11.93;1.98;;;;;;;;;;4955833;28;20203;-64
2022/07/02 03:22:06;;;;;;;8.88;2.10;;;;;;;;;;4956039;29;20214;-66
2022/07/02 03:24:32;;;;;;;7.00;2.15;;;;;;;;;;4936962;28;20291;-65
2022/07/02 03:26:59;;;;;;;6.80;2.30;;;;;;;;;;4956066;29;20186;-64
2022/07/02 03:29:25;;;;;;;6.85;2.00;;;;;;;;;;4956056;29;20261;-64
2022/07/02 03:31:51;;;;;;;8.52;2.47;;;;;;;;;;4954689;28;20241;-64
2022/07/02 03:34:17;;;;;;;9.50;2.10;;;;;;;;;;4955154;28;20182;-64
2022/07/02 03:36:43;;;;;;;4.72;2.00;;;;;;;;;;4938065;29;20579;-64
2022/07/02 03:39:09;;;;;;;8.55;2.00;;;;;;;;;;4955759;29;20179;-65
2022/07/02 03:41:36;;;;;;;5.93;2.13;;;;;;;;;;4955790;29;20179;-65
2022/07/02 03:44:02;;;;;;;4.85;2.20;;;;;;;;;;4953198;28;20179;-65
2022/07/02 03:46:28;;;;;;;7.50;2.10;;;;;;;;;;4938393;29;20190;-65
2022/07/02 03:48:54;;;;;;;5.55;2.00;;;;;;;;;;4955656;29;20198;-64
2022/07/02 03:51:21;;;;;;;10.18;2.10;;;;;;;;;;4937935;29;20645;-66
2022/07/02 03:53:48;;;;;;;5.18;2.10;;;;;;;;;;4954594;28;20218;-66
2022/07/02 03:56:14;;;;;;;5.05;2.10;;;;;;;;;;4955055;29;20190;-65
2022/07/02 03:58:41;;;;;;;6.32;1.90;;;;;;;;;;4938381;29;20187;-66
2022/07/02 04:01:07;;;;;;;5.97;2.20;;;;;;;;;;4936386;29;20183;-68
2022/07/02 04:03:34;;;;;;;9.50;2.25;;;;;;;;;;4931489;29;20610;-68
2022/07/02 04:06:00;;;;;;;9.15;2.55;;;;;;;;;;4937554;29;20210;-66
2022/07/02 04:08:27;;;;;;;5.63;2.13;;;;;;;;;;4953742;28;20193;-68
2022/07/02 04:10:53;;;;;;;4.47;2.05;;;;;;;;;;4953764;29;20233;-67
2022/07/02 04:13:19;;;;;;;6.40;2.40;;;;;;;;;;4936742;29;20297;-66
2022/07/02 04:15:45;;;;;;;5.60;2.10;;;;;;;;;;4955325;29;20187;-68
2022/07/02 04:18:11;;;;;;;6.00;2.08;;;;;;;;;;4955044;29;20183;-66
2022/07/02 04:20:37;;;;;;;5.18;2.30;;;;;;;;;;4937785;29;20183;-67
2022/07/02 04:23:04;;;;;;;6.80;2.10;;;;;;;;;;4954836;29;20183;-65
2022/07/02 04:25:30;;;;;;;5.07;2.35;;;;;;;;;;4953725;28;20195;-67
2022/07/02 04:27:57;;;;;;;5.05;2.13;;;;;;;;;;4937456;29;20174;-67
2022/07/02 04:30:23;;;;;;;9.60;2.47;;;;;;;;;;4954942;29;20183;-68
2022/07/02 04:32:50;;;;;;;6.88;2.55;;;;;;;;;;4954807;29;20206;-69
2022/07/02 04:35:17;;;;;;;6.18;2.60;;;;;;;;;;4936706;29;20190;-68
2022/07/02 04:37:43;;;;;;;9.07;2.60;;;;;;;;;;4937555;29;20182;-67
2022/07/02 04:40:09;;;;;;;7.10;2.40;;;;;;;;;;4954635;29;20232;-67
2022/07/02 04:42:35;;;;;;;7.57;2.42;;;;;;;;;;4937556;29;20195;-68
2022/07/02 04:45:02;;;;;;;6.38;2.53;;;;;;;;;;4936672;29;20190;-67
2022/07/02 04:47:28;;;;;;;5.65;2.60;;;;;;;;;;4937449;29;20182;-67
2022/07/02 04:49:54;;;;;;;10.07;2.70;;;;;;;;;;4937686;29;20183;-67
2022/07/02 04:52:20;;;;;;;7.65;2.72;;;;;;;;;;4937603;29;20226;-68
2022/07/02 04:54:46;;;;;;;8.45;2.50;;;;;;;;;;4952787;28;20190;-66
2022/07/02 04:57:13;;;;;;;6.20;2.83;;;;;;;;;;4954508;29;20651;-66
2022/07/02 04:59:39;;;;;;;10.95;2.70;;;;;;;;;;4953442;29;20186;-66
2022/07/02 05:02:05;;;;;;;10.90;2.90;;;;;;;;;;4953539;28;20206;-66
2022/07/02 05:04:31;;;;;;;9.13;2.75;;;;;;;;;;4921627;29;20182;-66
2022/07/02 05:06:57;;;;;;;6.30;2.92;;;;;;;;;;4954268;29;20179;-66
2022/07/02 05:09:23;;;;;;;7.93;2.75;;;;;;;;;;4936396;29;20311;-66
2022/07/02 05:11:50;;;;;;;11.25;2.88;;;;;;;;;;4936468;29;20182;-66
2022/07/02 05:14:16;;;;;;;11.07;3.00;;;;;;;;;;4954369;29;20635;-67
2022/07/02 05:16:42;;;;;;;8.13;2.80;;;;;;;;;;4954299;29;20210;-66
2022/07/02 05:19:08;;;;;;;7.03;2.78;;;;;;;;;;4952786;28;20266;-67
2022/07/02 05:21:36;;;;;;;6.95;2.83;;;;;;;;;;4921084;29;20194;-65
2022/07/02 05:24:02;;;;;;;9.95;2.55;;;;;;;;;;4954936;29;20274;-66
2022/07/02 05:26:29;;;;;;;12.15;3.10;;;;;;;;;;4954367;29;20647;-67
2022/07/02 05:28:55;;;;;;;5.68;2.72;;;;;;;;;;4920289;28;20179;-68
2022/07/02 05:31:21;;;;;;;13.02;2.90;;;;;;;;;;4937790;29;20290;-64
2022/07/02 05:33:47;;;;;;;7.85;2.78;;;;;;;;;;4954110;29;20357;-66
2022/07/02 05:36:13;;;;;;;9.52;2.67;;;;;;;;;;4936475;29;20183;-64
2022/07/02 05:38:40;;;;;;;9.65;3.30;;;;;;;;;;4955903;28;20194;-66
2022/07/02 05:41:07;;;;;;;8.55;3.00;;;;;;;;;;4940513;29;20234;-66
2022/07/02 05:43:33;;;;;;;8.50;2.85;;;;;;;;;;4957922;29;20559;-65
2022/07/02 05:45:59;;;;;;;9.02;2.65;;;;;;;;;;4940603;29;20273;-65
2022/07/02 05:48:25;;;;;;;15.13;3.22;;;;;;;;;;4956147;28;20195;-65
2022/07/02 05:50:51;;;;;;;7.95;2.85;;;;;;;;;;4956370;28;20191;-66
2022/07/02 05:53:17;;;;;;;7.53;2.67;;;;;;;;;;4924793;29;20214;-64
2022/07/02 05:55:44;;;;;;;9.13;2.90;;;;;;;;;;4940366;29;20669;-66
2022/07/02 05:58:12;;;;;;;8.48;2.70;;;;;;;;;;4957335;29;20187;-65
2022/07/02 06:00:38;;;;;;;12.82;3.20;;;;;;;;;;4955771;28;20571;-65
2022/07/02 06:03:04;;;;;;;7.30;2.70;;;;;;;;;;4940235;29;20219;-66
2022/07/02 06:08:15;;;;;;;11.23;2.78;;;;;;;;;;4955239;28;20218;-66
2022/07/02 06:10:41;;;;;;;8.25;3.03;;;;;;;;;;4956312;28;20289;-67
2022/07/02 06:13:07;;;;;;;11.73;3.08;;;;;;;;;;4956395;28;20214;-65
2022/07/02 06:15:33;;;;;;;15.05;3.13;;;;;;;;;;4939061;29;20647;-67
2022/07/02 06:18:00;;;;;;;7.28;2.83;;;;;;;;;;4924621;29;20642;-65
2022/07/02 06:20:26;;;;;;;6.63;2.53;;;;;;;;;;4957156;29;20261;-65
2022/07/02 06:22:53;;;;;;;11.27;2.80;;;;;;;;;;4957142;29;20262;-65
2022/07/02 06:25:19;;;;;;;11.30;2.72;;;;;;;;;;4956359;28;20186;-66
2022/07/02 06:27:45;;;;;;;9.18;2.78;;;;;;;;;;4939061;29;20248;-64
2022/07/02 06:30:12;;;;;;;6.72;2.70;;;;;;;;;;4957539;29;20190;-65
2022/07/02 06:32:38;;;;;;;11.73;2.97;;;;;;;;;;4940049;29;20309;-65
2022/07/02 06:35:04;;;;;;;8.13;2.60;;;;;;;;;;4956058;28;20190;-66
2022/07/02 06:37:31;;;;;;;7.22;2.40;;;;;;;;;;4956248;29;20265;-66
2022/07/02 06:39:57;;;;;;;12.48;2.65;;;;;;;;;;4956733;29;20721;-66
2022/07/02 06:42:23;;;;;;;12.80;2.70;;;;;;;;;;4956753;29;20266;-66
2022/07/02 06:44:55;;;;;;;14.20;3.00;;;;;;;;;;4938822;29;20198;-66
2022/07/02 06:47:21;;;;;;;14.32;2.88;;;;;;;;;;4956579;29;20261;-65
2022/07/02 06:49:48;;;;;;;11.35;2.70;;;;;;;;;;4955806;28;20661;-66
2022/07/02 06:52:15;;;;;;;9.63;2.72;;;;;;;;;;4923545;29;20697;-66
2022/07/02 06:54:41;;;;;;;13.73;2.78;;;;;;;;;;4937823;29;20215;-66
2022/07/02 06:57:09;;;;;;;10.50;2.60;;;;;;;;;;4956281;29;20750;-67
2022/07/02 06:59:35;;;;;;;9.60;2.70;;;;;;;;;;4956245;29;20631;-66
2022/07/02 07:02:02;;;;;;;12.70;2.95;;;;;;;;;;4938968;29;20182;-65
2022/07/02 07:04:28;;;;;;;11.95;2.55;;;;;;;;;;4922670;29;20211;-66
2022/07/02 07:06:55;;;;;;;12.15;2.45;;;;;;;;;;4955819;29;20697;-67
2022/07/02 07:09:22;;;;;;;10.57;2.40;;;;;;;;;;4955026;28;20187;-65
2022/07/02 07:11:48;;;;;;;6.40;2.17;;;;;;;;;;4955912;29;20191;-65
2022/07/02 07:14:14;;;;;;;8.60;2.28;;;;;;;;;;4954466;28;20186;-65
2022/07/02 07:16:40;;;;;;;7.30;2.05;;;;;;;;;;4956593;29;20190;-65
2022/07/02 07:19:07;;;;;;;10.65;2.50;;;;;;;;;;4956075;29;20183;-66
2022/07/02 07:21:34;;;;;;;12.20;2.05;;;;;;;;;;4939209;29;20194;-68
2022/07/02 07:24:00;;;;;;;8.75;2.13;;;;;;;;;;4954198;28;20194;-68
2022/07/02 07:26:26;;;;;;;5.60;1.55;;;;;;;;;;4938397;29;20191;-68
2022/07/02 07:28:52;;;;;;;8.88;1.77;;;;;;;;;;4938883;29;20185;-67
2022/07/02 07:31:21;;;;;;;5.05;1.73;;;;;;;;;;4938816;29;20205;-68
2022/07/02 07:33:48;;;;;;;6.95;1.50;;;;;;;;;;4954059;28;20210;-67
2022/07/02 07:36:14;;;;;;;5.85;1.65;;;;;;;;;;4955562;29;20643;-68
2022/07/02 07:38:41;;;;;;;6.90;1.40;;;;;;;;;;4937730;29;20190;-68
2022/07/02 07:41:07;;;;;;;6.65;1.70;;;;;;;;;;4955785;29;20689;-66
2022/07/02 07:43:33;;;;;;;5.70;1.77;;;;;;;;;;4954721;28;20194;-68
2022/07/02 07:45:59;;;;;;;4.30;1.40;;;;;;;;;;4955463;29;20178;-67
2022/07/02 07:48:25;;;;;;;5.13;1.70;;;;;;;;;;4954087;28;20274;-68
2022/07/02 07:50:51;;;;;;;4.18;1.30;;;;;;;;;;4955339;29;20182;-67
2022/07/02 07:53:18;;;;;;;5.68;1.50;;;;;;;;;;4955347;29;20217;-67
2022/07/02 07:55:45;;;;;;;10.30;1.67;;;;;;;;;;4938574;29;20238;-68
2022/07/02 07:58:12;;;;;;;7.45;2.05;;;;;;;;;;4954247;28;20246;-67
2022/07/02 08:00:38;;;;;;;5.88;1.45;;;;;;;;;;4938271;29;20167;-68
2022/07/02 08:03:04;;;;;;;4.13;1.55;;;;;;;;;;4954582;28;20213;-67
2022/07/02 08:05:30;;;;;;;9.00;1.25;;;;;;;;;;4955037;29;20185;-67
2022/07/02 08:07:56;;;;;;;6.95;1.23;;;;;;;;;;4952133;28;20233;-67
2022/07/02 08:10:22;;;;;;;4.75;1.30;;;;;;;;;;4954963;29;20289;-68
2022/07/02 08:12:49;;;;;;;8.07;1.20;;;;;;;;;;4937408;29;20222;-67
2022/07/02 08:15:16;;;;;;;4.90;1.40;;;;;;;;;;4954930;29;20174;-66
2022/07/02 08:17:42;;;;;;;4.28;1.20;;;;;;;;;;4953572;28;20313;-66
2022/07/02 08:20:09;;;;;;;4.78;1.50;;;;;;;;;;4954474;29;20198;-66
2022/07/02 08:22:36;;;;;;;5.65;1.50;;;;;;;;;;4955476;29;20190;-66
2022/07/02 08:25:02;;;;;;;10.63;1.40;;;;;;;;;;4954909;28;20202;-66
2022/07/02 08:27:29;;;;;;;6.97;1.25;;;;;;;;;;4955099;29;20758;-67
2022/07/02 08:29:55;;;;;;;2.75;1.00;;;;;;;;;;4951935;28;20643;-66
2022/07/02 08:32:21;;;;;;;3.80;1.05;;;;;;;;;;4937114;29;20301;-67
2022/07/02 08:34:48;;;;;;;5.15;1.25;;;;;;;;;;4954870;29;20189;-68
2022/07/02 08:37:14;;;;;;;5.72;1.08;;;;;;;;;;4953847;29;20187;-66
2022/07/02 08:39:41;;;;;;;5.03;1.20;;;;;;;;;;4937060;29;20757;-66
2022/07/02 08:42:09;;;;;;;6.15;1.10;;;;;;;;;;4921480;29;20237;-69
2022/07/02 08:44:36;;;;;;;6.53;1.13;;;;;;;;;;4954893;29;20175;-68
2022/07/02 08:47:04;;;;;;;6.88;1.17;;;;;;;;;;4937804;29;20242;-68
2022/07/02 08:49:31;;;;;;;4.75;1.27;;;;;;;;;;4935139;29;20190;-66
2022/07/02 08:52:06;;;;;;;3.78;1.23;;;;;;;;;;4954360;29;20186;-66
2022/07/02 08:54:32;;;;;;;2.13;1.08;;;;;;;;;;4954715;29;20653;-67
2022/07/02 08:57:03;;;;;;;5.20;1.40;;;;;;;;;;4937375;29;20269;-67
2022/07/02 08:59:33;;;;;;;3.00;1.08;;;;;;;;;;4936791;29;20675;-69
2022/07/02 09:01:59;;;;;;;6.45;1.20;;;;;;;;;;4954551;29;20602;-67
2022/07/02 09:04:26;;;;;;;3.08;1.23;;;;;;;;;;4921144;29;20194;-68
2022/07/02 09:06:59;;;;;;;5.65;1.23;;;;;;;;;;4953622;29;20245;-68
2022/07/02 09:09:28;;;;;;;2.95;1.10;;;;;;;;;;4936156;29;20222;-66
2022/07/02 09:11:55;;;;;;;4.45;1.35;;;;;;;;;;4953739;28;20268;-66
2022/07/02 09:14:21;;;;;;;2.97;1.20;;;;;;;;;;4957801;29;20190;-67
2022/07/02 09:16:48;;;;;;;3.13;1.40;;;;;;;;;;4940281;28;20609;-65
2022/07/02 09:19:15;;;;;;;5.70;1.75;;;;;;;;;;4941164;29;20248;-67
2022/07/02 09:21:44;;;;;;;4.20;1.25;;;;;;;;;;4957724;29;20193;-68
2022/07/02 09:24:10;;;;;;;3.58;1.27;;;;;;;;;;4958163;29;20198;-67
2022/07/02 09:26:36;;;;;;;4.72;1.20;;;;;;;;;;4957281;29;20191;-66
2022/07/02 09:29:04;;;;;;;4.53;1.20;;;;;;;;;;4955779;28;20238;-66
2022/07/02 09:31:33;;;;;;;3.28;1.20;;;;;;;;;;4956903;29;20261;-66
2022/07/02 09:33:59;;;;;;;4.53;0.90;;;;;;;;;;4940101;29;20218;-66
2022/07/02 09:36:26;;;;;;;3.53;0.80;;;;;;;;;;4940202;29;20210;-65
2022/07/02 09:38:53;;;;;;;4.93;1.13;;;;;;;;;;4956747;28;20190;-67
2022/07/02 09:41:22;;;;;;;4.13;1.00;;;;;;;;;;4957504;29;20186;-65
2022/07/02 09:43:59;;;;;;;3.55;0.95;;;;;;;;;;4957117;29;20194;-66
2022/07/02 09:46:25;;;;;;;4.88;0.90;;;;;;;;;;4957190;29;20658;-64
2022/07/02 09:48:51;;;;;;;7.95;1.08;;;;;;;;;;4939254;29;20187;-66
2022/07/02 09:51:18;;;;;;;1.73;0.80;;;;;;;;;;4940514;29;20245;-64
2022/07/02 09:53:48;;;;;;;10.18;1.30;;;;;;;;;;4940859;29;20229;-66
2022/07/02 09:56:14;;;;;;;3.78;0.90;;;;;;;;;;4957703;29;20194;-65
2022/07/02 09:58:41;;;;;;;2.70;1.00;;;;;;;;;;4957851;28;20178;-65
2022/07/02 10:01:07;;;;;;;4.57;1.13;;;;;;;;;;4957210;29;20652;-64
2022/07/02 10:03:45;;;;;;;2.05;0.70;;;;;;;;;;4956328;29;20198;-65
2022/07/02 10:06:11;;;;;;;4.95;0.90;;;;;;;;;;4957234;29;20214;-63
2022/07/02 10:08:37;;;;;;;4.40;1.30;;;;;;;;;;4955748;28;20190;-66
2022/07/02 10:11:04;;;;;;;5.18;1.15;;;;;;;;;;4956876;29;20249;-66
2022/07/02 10:13:31;;;;;;;5.57;1.08;;;;;;;;;;4957188;29;20206;-66
2022/07/02 10:16:01;;;;;;;3.47;0.73;;;;;;;;;;4955804;28;20195;-66
2022/07/02 10:18:28;;;;;;;3.15;0.90;;;;;;;;;;4940384;29;20186;-66
2022/07/02 10:20:57;;;;;;;4.38;1.10;;;;;;;;;;4957227;29;20506;-66
2022/07/02 10:23:24;;;;;;;5.25;0.90;;;;;;;;;;4956637;28;20195;-64
2022/07/02 10:25:50;;;;;;;3.17;0.90;;;;;;;;;;4954934;28;20183;-65
2022/07/02 10:28:17;;;;;;;4.30;1.00;;;;;;;;;;4956583;28;20182;-64
2022/07/02 10:30:43;;;;;;;5.53;1.13;;;;;;;;;;4939181;29;20194;-65
2022/07/02 10:33:29;;;;;;;2.88;0.75;;;;;;;;;;4957168;29;20281;-65
2022/07/02 10:35:55;;;;;;;1.63;0.70;;;;;;;;;;4955086;28;20194;-64
2022/07/02 10:38:32;;;;;;;3.53;0.85;;;;;;;;;;4955168;29;20214;-66
2022/07/02 10:40:58;;;;;;;3.92;1.23;;;;;;;;;;4955442;28;20286;-65
2022/07/02 10:43:30;;;;;;;3.13;0.98;;;;;;;;;;4956852;29;20265;-65
2022/07/02 10:46:09;;;;;;;3.45;1.15;;;;;;;;;;4924276;29;20273;-65
2022/07/02 10:48:55;;;;;;;2.10;0.70;;;;;;;;;;4937071;29;20183;-65
2022/07/02 10:51:26;;;;;;;1.90;0.88;;;;;;;;;;4938690;28;20171;-64
2022/07/02 10:53:53;;;;;;;5.70;1.17;;;;;;;;;;4955534;28;20226;-66
2022/07/02 10:56:21;;;;;;;6.40;1.02;;;;;;;;;;4956393;29;20550;-65
2022/07/02 10:58:47;;;;;;;4.03;1.02;;;;;;;;;;4922771;29;20214;-66
2022/07/02 11:01:13;;;;;;;3.13;0.75;;;;;;;;;;4955281;28;20201;-66
2022/07/02 11:03:50;;;;;;;1.00;0.57;;;;;;;;;;4939199;29;20225;-66
2022/07/02 11:06:21;;;;;;;2.63;0.70;;;;;;;;;;4939444;29;20175;-67
2022/07/02 11:09:07;;;;;;;2.25;0.82;;;;;;;;;;4955307;29;20647;-66
2022/07/02 11:11:35;;;;;;;2.60;1.17;;;;;;;;;;4938144;29;20238;-66
2022/07/02 11:14:07;;;;;;;2.28;0.80;;;;;;;;;;4956184;29;20220;-66
2022/07/02 11:16:40;;;;;;;5.50;0.90;;;;;;;;;;4956061;29;20183;-66
2022/07/02 11:19:14;;;;;;;3.92;0.90;;;;;;;;;;4956217;29;20175;-66
2022/07/02 11:21:40;;;;;;;3.22;0.88;;;;;;;;;;4954878;28;20186;-67
2022/07/02 11:24:07;;;;;;;3.65;1.20;;;;;;;;;;4955614;29;20249;-65
2022/07/02 11:26:33;;;;;;;4.57;0.90;;;;;;;;;;4955748;29;20204;-66
2022/07/02 11:29:06;;;;;;;1.38;0.80;;;;;;;;;;4952241;29;20218;-66
2022/07/02 11:31:35;;;;;;;2.25;0.70;;;;;;;;;;4954361;28;20197;-66
2022/07/02 11:34:02;;;;;;;3.20;1.20;;;;;;;;;;4955117;28;20210;-67
2022/07/02 11:36:28;;;;;;;3.53;0.98;;;;;;;;;;4952933;28;20190;-65
2022/07/02 11:38:55;;;;;;;1.83;0.80;;;;;;;;;;4938104;29;20197;-66
2022/07/02 11:41:24;;;;;;;2.38;0.80;;;;;;;;;;4955737;29;20182;-65
2022/07/02 11:43:52;;;;;;;4.40;0.95;;;;;;;;;;4938177;29;20993;-64
2022/07/02 11:46:20;;;;;;;4.43;0.93;;;;;;;;;;4940828;29;20277;-65
2022/07/02 11:48:46;;;;;;;4.47;0.77;;;;;;;;;;4955166;29;20179;-67
2022/07/02 11:51:13;;;;;;;3.92;1.10;;;;;;;;;;4954489;28;20194;-67
2022/07/02 11:53:39;;;;;;;4.80;1.05;;;;;;;;;;4955514;29;20682;-66
2022/07/02 11:56:07;;;;;;;3.05;1.02;;;;;;;;;;4953600;28;20186;-65
2022/07/02 11:58:40;;;;;;;6.70;1.50;;;;;;;;;;4955140;28;20266;-65
2022/07/02 12:01:16;;;;;;;2.80;0.98;;;;;;;;;;4937985;29;20214;-65
2022/07/02 12:03:46;;;;;;;1.38;0.85;;;;;;;;;;4955291;29;20182;-67
2022/07/02 12:06:12;;;;;;;4.05;1.23;;;;;;;;;;4952423;28;20190;-65
2022/07/02 12:08:39;;;;;;;4.30;1.05;;;;;;;;;;4937300;29;20191;-67
2022/07/02 12:11:15;;;;;;;2.72;1.10;;;;;;;;;;4955049;29;20585;-64
2022/07/02 12:13:43;;;;;;;2.50;1.00;;;;;;;;;;4954285;29;20222;-66
2022/07/02 12:16:11;;;;;;;3.28;1.10;;;;;;;;;;4953867;28;20179;-66
2022/07/02 12:18:37;;;;;;;3.92;1.15;;;;;;;;;;4954603;29;20190;-66
2022/07/02 12:21:10;;;;;;;3.22;0.80;;;;;;;;;;4937861;29;20191;-67
2022/07/02 12:23:50;;;;;;;4.45;0.90;;;;;;;;;;4954927;29;20635;-66
2022/07/02 12:26:19;;;;;;;1.92;1.00;;;;;;;;;;4953526;28;20186;-64
2022/07/02 12:31:44;;;;;;;3.28;0.93;;;;;;;;;;4954900;29;20185;-64
2022/07/02 12:34:10;;;;;;;2.80;1.00;;;;;;;;;;4954403;29;20214;-65
2022/07/02 12:36:44;;;;;;;3.47;0.90;;;;;;;;;;4953422;28;20241;-65
2022/07/02 12:39:11;;;;;;;1.85;0.98;;;;;;;;;;4937271;29;20192;-65
2022/07/02 12:41:38;;;;;;;3.55;1.00;;;;;;;;;;4937797;29;20183;-66
2022/07/02 12:44:04;;;;;;;2.72;0.90;;;;;;;;;;4955002;29;20195;-66
2022/07/02 12:46:30;;;;;;;3.78;1.23;;;;;;;;;;4953653;28;20277;-66
2022/07/02 12:48:56;;;;;;;2.72;1.00;;;;;;;;;;4936030;29;20178;-66
2022/07/02 12:51:22;;;;;;;5.88;0.98;;;;;;;;;;4954407;29;20178;-66
2022/07/02 12:53:58;;;;;;;2.60;0.80;;;;;;;;;;4944152;29;20222;-65
2022/07/02 12:56:24;;;;;;;1.88;0.70;;;;;;;;;;4936649;29;20182;-66
2022/07/02 12:58:51;;;;;;;2.92;1.00;;;;;;;;;;4954403;29;20214;-66
2022/07/02 13:01:17;;;;;;;3.42;1.00;;;;;;;;;;4954614;29;20193;-64
2022/07/02 13:03:44;;;;;;;4.75;0.98;;;;;;;;;;4954801;29;20240;-67
2022/07/02 13:06:10;;;;;;;2.85;0.73;;;;;;;;;;4953408;28;20187;-66
2022/07/02 13:08:36;;;;;;;1.58;1.00;;;;;;;;;;4952534;28;20178;-65
2022/07/02 13:11:04;;;;;;;2.58;1.00;;;;;;;;;;4939525;29;20257;-65
2022/07/02 13:13:30;;;;;;;3.75;1.10;;;;;;;;;;4954148;29;20222;-66
2022/07/02 13:15:56;;;;;;;1.45;0.80;;;;;;;;;;4953738;28;20195;-63
2022/07/02 13:18:22;;;;;;;5.13;1.13;;;;;;;;;;4953440;28;20296;-64
2022/07/02 13:20:48;;;;;;;2.83;1.00;;;;;;;;;;4954367;29;20289;-64
2022/07/02 13:23:15;;;;;;;3.42;1.25;;;;;;;;;;4937218;29;20696;-65
2022/07/02 13:25:41;;;;;;;4.03;1.15;;;;;;;;;;4953758;28;20183;-64
2022/07/02 13:28:07;;;;;;;2.28;1.00;;;;;;;;;;4953676;29;20198;-64
2022/07/02 13:30:33;;;;;;;3.17;1.20;;;;;;;;;;4953819;29;20200;-63
2022/07/02 13:32:59;;;;;;;4.13;0.98;;;;;;;;;;4936955;29;20218;-64
2022/07/02 13:35:25;;;;;;;2.67;0.98;;;;;;;;;;4952166;28;20219;-63
2022/07/02 13:37:51;;;;;;;4.55;1.20;;;;;;;;;;4953431;29;20190;-64
2022/07/02 13:40:18;;;;;;;3.65;1.10;;;;;;;;;;4937330;29;20183;-63
2022/07/02 13:42:44;;;;;;;1.70;0.90;;;;;;;;;;4954341;29;20577;-64
2022/07/02 13:45:10;;;;;;;5.28;1.20;;;;;;;;;;4951676;28;20199;-63
2022/07/02 13:47:36;;;;;;;3.30;1.08;;;;;;;;;;4954025;29;20179;-64
2022/07/02 13:50:03;;;;;;;2.40;1.02;;;;;;;;;;4936578;29;20630;-63
2022/07/02 13:52:29;;;;;;;5.22;1.13;;;;;;;;;;4936285;29;20226;-63
2022/07/02 13:54:57;;;;;;;4.35;1.20;;;;;;;;;;4953046;28;20174;-63
2022/07/02 13:57:23;;;;;;;6.80;1.30;;;;;;;;;;4953573;29;20202;-64
2022/07/02 13:59:49;;;;;;;4.78;1.40;;;;;;;;;;4956555;28;20202;-64
2022/07/02 14:02:16;;;;;;;3.00;1.00;;;;;;;;;;4957320;29;20273;-64
2022/07/02 14:04:42;;;;;;;3.75;0.93;;;;;;;;;;4951941;29;20194;-62
2022/07/02 14:07:08;;;;;;;4.70;1.20;;;;;;;;;;4956518;29;20190;-63
2022/07/02 14:09:37;;;;;;;4.32;1.00;;;;;;;;;;4939584;29;20225;-62
2022/07/02 14:12:08;;;;;;;6.30;1.42;;;;;;;;;;4940146;29;20273;-65
2022/07/02 14:14:34;;;;;;;9.48;1.20;;;;;;;;;;4938697;29;20210;-65
2022/07/02 14:17:00;;;;;;;3.67;1.00;;;;;;;;;;4939948;29;20653;-63
2022/07/02 14:19:27;;;;;;;4.28;1.17;;;;;;;;;;4939973;29;20285;-63
2022/07/02 14:21:53;;;;;;;4.50;1.00;;;;;;;;;;4957136;29;20655;-62
2022/07/02 14:24:19;;;;;;;3.83;1.00;;;;;;;;;;4937363;29;20234;-63
2022/07/02 14:26:45;;;;;;;3.70;1.40;;;;;;;;;;4938893;29;20282;-63
2022/07/02 14:29:12;;;;;;;3.88;0.90;;;;;;;;;;4956984;29;20191;-64
2022/07/02 14:31:38;;;;;;;2.75;0.98;;;;;;;;;;4956778;29;20281;-64
2022/07/02 14:34:04;;;;;;;4.72;1.05;;;;;;;;;;4954832;28;20270;-63
2022/07/02 14:36:30;;;;;;;6.43;1.20;;;;;;;;;;4939950;29;20544;-63
2022/07/02 14:38:56;;;;;;;1.17;0.88;;;;;;;;;;4956251;29;20575;-64
2022/07/02 14:41:31;;;;;;;2.45;1.20;;;;;;;;;;4956172;29;20348;-64
2022/07/02 14:43:58;;;;;;;3.13;1.20;;;;;;;;;;4955964;28;20222;-64
2022/07/02 14:48:53;;;;;;;1.55;0.90;;;;;;;;;;4956931;29;20222;-64
2022/07/02 14:51:21;;;;;;;6.28;1.10;;;;;;;;;;4939975;29;20214;-64